Aérodrome :
LOGIN :

S'inscrire | Disclaimer

   EN    FR    IT 

 










Légende :    VFR   VFR Marginal   IFR   IFR Intensif   IFR Très Intensif
Visi : 
Plafond : 
>= 8 km
>= 3000ft
5 à 8 km
1000 à 3000 ft
1500m à 5 km
500 à 1000 ft
800 à 1500m
200 à 500 ft
< 800m
< 200 ft
Symboles :   Orages  Brouillard  Fortes neiges  Fortes précipitations  Vent > 20 kt
SIGMETs :   Divers  Orages  Givrage  Turbulence  Onde Orograph.  Cendres Volcan.







- Altitude de l'aérodrome : 83 ft
- Code IATA : LHR
- Voir les cartes d'approche


EGLL - London Heathrow

DERNIER METAR :
  • 212350Z AUTO 25009KT 9999 BKN012 OVC016 11/09 Q1007 BECMG BKN015

METARs EXPIRÉS :
  • 212320Z AUTO 24008KT 9999 BKN013 OVC039 11/09 Q1006 BECMG BKN015
  • 212250Z AUTO 26010KT 9999 BKN013 OVC038 11/09 Q1006 BECMG FEW012 OVC038
  • 212220Z AUTO 27011KT 9999 BKN013 OVC017 11/09 Q1006 BECMG BKN015
  • 212150Z AUTO 25011KT 9999 BKN012 OVC019 11/10 Q1006 BECMG BKN015
  • 212120Z AUTO 25009KT 9999 OVC010 12/10 Q1006

TAF TAF EGLL
Valide du 22 à 00h jusqu'au 23 à 06h UTC


212302Z 2200/2306 27008KT 9999 BKN014
BECMG 2200/2203 SCT030
BECMG 2304/2306 21012KT BKN012
TEMPO 2304/2306 7000 -RADZ BKN008
Pas de NOTAMs connus pour ce terrain.
2 SIGMETs publiés pour la FIR London (EGTT) :
 
Onde orographique forte
EGTT SIGMET 07 VALID 212230/220230 EGRR
EGTT LONDON FIR SEV MTW FCST WI N5320 E00143 - N5309 W00144 - N5500 W00348 - N5500 E00025 - N5320 E00143 FL040/120 STNR NC=
Givrage fort
EGTT SIGMET 06 VALID 212300/220300 EGRR
EGTT LONDON FIR SEV ICE FCST WI N5500 E00147 - N5500 E00400 - N5430 E00432 - N5306 E00318 - N5500 E00147 FL030/110 MOV NE 15KT NC=



MET'MAP, la Météo Aéronautique d'un coup d'oeil ! - Copyright ORBIFLY Décembre 2007 - Disclaimer

ORBIFLY MET'MAP TEAM :

Programmation & Développement : Alexandra Zaïnal
Conception & Développement : Baudouin d'Aumeries
Co-Programmation & Développement : Marc-Olivier Méhu
Soutien technique & logistique : Manuel Goepfert

Contact : metmap@orbifly.com




SOURCES & CREDITS :

   NOAA